sensor_id;sensor_type;location;lat;lon;timestamp;P1;durP1;ratioP1;P2;durP2;ratioP2
30635;SDS011;17400;52.392;9.750;2023-03-01T00:01:11;21.63;;;13.43;;
30635;SDS011;17400;52.392;9.750;2023-03-01T00:03:41;20.83;;;11.20;;
30635;SDS011;17400;52.392;9.750;2023-03-01T00:06:11;19.70;;;11.60;;
30635;SDS011;17400;52.392;9.750;2023-03-01T00:08:39;26.77;;;13.60;;
30635;SDS011;17400;52.392;9.750;2023-03-01T00:11:08;24.17;;;12.80;;
30635;SDS011;17400;52.392;9.750;2023-03-01T00:13:39;23.87;;;12.13;;
30635;SDS011;17400;52.392;9.750;2023-03-01T00:16:09;20.40;;;12.73;;
30635;SDS011;17400;52.392;9.750;2023-03-01T00:18:39;19.00;;;10.83;;
30635;SDS011;17400;52.392;9.750;2023-03-01T00:21:07;20.13;;;11.37;;
30635;SDS011;17400;52.392;9.750;2023-03-01T00:23:36;19.00;;;11.17;;
30635;SDS011;17400;52.392;9.750;2023-03-01T00:26:05;16.73;;;10.53;;
30635;SDS011;17400;52.392;9.750;2023-03-01T00:28:34;20.37;;;11.30;;
30635;SDS011;17400;52.392;9.750;2023-03-01T00:31:02;20.93;;;11.03;;
30635;SDS011;17400;52.392;9.750;2023-03-01T00:33:31;20.07;;;11.00;;
30635;SDS011;17400;52.392;9.750;2023-03-01T00:35:59;17.27;;;9.60;;
30635;SDS011;17400;52.392;9.750;2023-03-01T00:38:27;17.43;;;10.87;;
30635;SDS011;17400;52.392;9.750;2023-03-01T00:40:56;17.90;;;10.20;;
30635;SDS011;17400;52.392;9.750;2023-03-01T00:43:30;15.37;;;9.53;;
30635;SDS011;17400;52.392;9.750;2023-03-01T00:46:03;15.13;;;9.73;;
30635;SDS011;17400;52.392;9.750;2023-03-01T00:48:32;19.50;;;11.43;;
30635;SDS011;17400;52.392;9.750;2023-03-01T00:51:03;18.47;;;10.77;;
30635;SDS011;17400;52.392;9.750;2023-03-01T00:53:33;14.70;;;10.00;;
30635;SDS011;17400;52.392;9.750;2023-03-01T00:56:02;19.33;;;11.07;;
30635;SDS011;17400;52.392;9.750;2023-03-01T00:58:31;17.83;;;9.67;;
30635;SDS011;17400;52.392;9.750;2023-03-01T01:00:59;17.77;;;10.87;;
30635;SDS011;17400;52.392;9.750;2023-03-01T01:03:27;15.17;;;10.77;;
30635;SDS011;17400;52.392;9.750;2023-03-01T01:05:55;15.60;;;10.73;;
30635;SDS011;17400;52.392;9.750;2023-03-01T01:08:23;16.60;;;10.93;;
30635;SDS011;17400;52.392;9.750;2023-03-01T01:10:51;16.83;;;9.87;;
30635;SDS011;17400;52.392;9.750;2023-03-01T01:13:20;19.47;;;11.00;;
30635;SDS011;17400;52.392;9.750;2023-03-01T01:15:47;20.73;;;11.00;;
30635;SDS011;17400;52.392;9.750;2023-03-01T01:18:15;19.63;;;11.57;;
30635;SDS011;17400;52.392;9.750;2023-03-01T01:20:43;22.30;;;11.03;;
30635;SDS011;17400;52.392;9.750;2023-03-01T01:23:11;19.17;;;11.27;;
30635;SDS011;17400;52.392;9.750;2023-03-01T01:25:39;17.77;;;11.33;;
30635;SDS011;17400;52.392;9.750;2023-03-01T01:28:06;20.23;;;11.13;;
30635;SDS011;17400;52.392;9.750;2023-03-01T01:30:36;19.17;;;11.00;;
30635;SDS011;17400;52.392;9.750;2023-03-01T01:33:03;22.33;;;12.17;;
30635;SDS011;17400;52.392;9.750;2023-03-01T01:35:31;15.77;;;9.70;;
30635;SDS011;17400;52.392;9.750;2023-03-01T01:37:59;19.83;;;11.03;;
30635;SDS011;17400;52.392;9.750;2023-03-01T01:40:26;21.03;;;10.97;;
30635;SDS011;17400;52.392;9.750;2023-03-01T01:42:54;19.80;;;11.40;;
30635;SDS011;17400;52.392;9.750;2023-03-01T01:45:26;24.10;;;12.10;;
30635;SDS011;17400;52.392;9.750;2023-03-01T01:47:59;20.50;;;11.30;;
30635;SDS011;17400;52.392;9.750;2023-03-01T01:50:31;17.97;;;10.77;;
30635;SDS011;17400;52.392;9.750;2023-03-01T01:53:05;19.73;;;10.67;;
30635;SDS011;17400;52.392;9.750;2023-03-01T01:55:36;16.70;;;10.63;;
30635;SDS011;17400;52.392;9.750;2023-03-01T01:58:09;17.53;;;11.00;;
30635;SDS011;17400;52.392;9.750;2023-03-01T02:00:40;18.33;;;10.40;;
30635;SDS011;17400;52.392;9.750;2023-03-01T02:03:10;16.27;;;11.23;;
30635;SDS011;17400;52.392;9.750;2023-03-01T02:05:42;22.93;;;12.80;;
30635;SDS011;17400;52.392;9.750;2023-03-01T02:08:20;19.33;;;9.30;;
30635;SDS011;17400;52.392;9.750;2023-03-01T02:10:50;16.90;;;10.77;;
30635;SDS011;17400;52.392;9.750;2023-03-01T02:13:21;19.87;;;10.80;;
30635;SDS011;17400;52.392;9.750;2023-03-01T02:15:49;27.47;;;12.67;;
30635;SDS011;17400;52.392;9.750;2023-03-01T02:18:18;21.63;;;11.70;;
30635;SDS011;17400;52.392;9.750;2023-03-01T02:20:59;19.70;;;11.80;;
30635;SDS011;17400;52.392;9.750;2023-03-01T02:23:35;19.60;;;11.03;;
30635;SDS011;17400;52.392;9.750;2023-03-01T02:26:05;18.57;;;11.33;;
30635;SDS011;17400;52.392;9.750;2023-03-01T02:28:39;24.17;;;12.23;;
30635;SDS011;17400;52.392;9.750;2023-03-01T02:31:11;19.23;;;10.83;;
30635;SDS011;17400;52.392;9.750;2023-03-01T02:34:01;18.50;;;11.00;;
30635;SDS011;17400;52.392;9.750;2023-03-01T02:36:31;18.27;;;11.30;;
30635;SDS011;17400;52.392;9.750;2023-03-01T02:39:03;19.47;;;12.13;;
30635;SDS011;17400;52.392;9.750;2023-03-01T02:41:34;17.30;;;11.43;;
30635;SDS011;17400;52.392;9.750;2023-03-01T02:44:05;20.63;;;12.83;;
30635;SDS011;17400;52.392;9.750;2023-03-01T02:46:41;18.57;;;11.00;;
30635;SDS011;17400;52.392;9.750;2023-03-01T02:49:21;22.03;;;12.80;;
30635;SDS011;17400;52.392;9.750;2023-03-01T02:51:57;20.57;;;12.27;;
30635;SDS011;17400;52.392;9.750;2023-03-01T02:54:36;20.53;;;12.07;;
30635;SDS011;17400;52.392;9.750;2023-03-01T02:57:08;16.90;;;11.30;;
30635;SDS011;17400;52.392;9.750;2023-03-01T02:59:39;22.20;;;11.43;;
30635;SDS011;17400;52.392;9.750;2023-03-01T03:02:18;20.70;;;11.90;;
30635;SDS011;17400;52.392;9.750;2023-03-01T03:04:48;22.57;;;12.53;;
30635;SDS011;17400;52.392;9.750;2023-03-01T03:07:16;19.30;;;12.10;;
30635;SDS011;17400;52.392;9.750;2023-03-01T03:09:43;21.97;;;12.00;;
30635;SDS011;17400;52.392;9.750;2023-03-01T03:12:11;21.73;;;12.80;;
30635;SDS011;17400;52.392;9.750;2023-03-01T03:14:42;20.37;;;11.50;;
30635;SDS011;17400;52.392;9.750;2023-03-01T03:17:10;19.70;;;10.87;;
30635;SDS011;17400;52.392;9.750;2023-03-01T03:19:38;20.93;;;11.67;;
30635;SDS011;17400;52.392;9.750;2023-03-01T03:22:05;19.90;;;11.47;;
30635;SDS011;17400;52.392;9.750;2023-03-01T03:24:35;19.83;;;10.97;;
30635;SDS011;17400;52.392;9.750;2023-03-01T03:27:04;17.20;;;11.80;;
30635;SDS011;17400;52.392;9.750;2023-03-01T03:29:32;21.43;;;12.37;;
30635;SDS011;17400;52.392;9.750;2023-03-01T03:32:03;25.03;;;11.53;;
30635;SDS011;17400;52.392;9.750;2023-03-01T03:34:31;19.33;;;12.87;;
30635;SDS011;17400;52.392;9.750;2023-03-01T03:36:59;19.37;;;11.43;;
30635;SDS011;17400;52.392;9.750;2023-03-01T03:39:26;19.83;;;12.20;;
30635;SDS011;17400;52.392;9.750;2023-03-01T03:41:55;22.53;;;11.63;;
30635;SDS011;17400;52.392;9.750;2023-03-01T03:44:22;18.03;;;11.07;;
30635;SDS011;17400;52.392;9.750;2023-03-01T03:46:50;21.57;;;12.27;;
30635;SDS011;17400;52.392;9.750;2023-03-01T03:49:19;16.50;;;10.40;;
30635;SDS011;17400;52.392;9.750;2023-03-01T03:51:47;17.97;;;11.43;;
30635;SDS011;17400;52.392;9.750;2023-03-01T03:54:14;22.07;;;11.93;;
30635;SDS011;17400;52.392;9.750;2023-03-01T03:56:43;20.53;;;11.27;;
30635;SDS011;17400;52.392;9.750;2023-03-01T03:59:11;18.17;;;11.50;;
30635;SDS011;17400;52.392;9.750;2023-03-01T04:01:38;19.97;;;11.93;;
30635;SDS011;17400;52.392;9.750;2023-03-01T04:04:06;18.90;;;12.13;;
30635;SDS011;17400;52.392;9.750;2023-03-01T04:06:35;16.77;;;10.17;;
30635;SDS011;17400;52.392;9.750;2023-03-01T04:09:03;16.53;;;10.63;;
30635;SDS011;17400;52.392;9.750;2023-03-01T04:11:30;18.57;;;10.57;;
30635;SDS011;17400;52.392;9.750;2023-03-01T04:14:00;17.73;;;10.80;;
30635;SDS011;17400;52.392;9.750;2023-03-01T04:16:30;19.67;;;11.57;;
30635;SDS011;17400;52.392;9.750;2023-03-01T04:18:59;21.90;;;13.07;;
30635;SDS011;17400;52.392;9.750;2023-03-01T04:21:26;17.57;;;11.90;;
30635;SDS011;17400;52.392;9.750;2023-03-01T04:23:55;20.17;;;12.23;;
30635;SDS011;17400;52.392;9.750;2023-03-01T04:26:23;22.13;;;12.83;;
30635;SDS011;17400;52.392;9.750;2023-03-01T04:28:51;23.33;;;12.57;;
30635;SDS011;17400;52.392;9.750;2023-03-01T04:31:19;19.57;;;12.43;;
30635;SDS011;17400;52.392;9.750;2023-03-01T04:33:48;17.57;;;11.60;;
30635;SDS011;17400;52.392;9.750;2023-03-01T04:36:19;23.70;;;13.43;;
30635;SDS011;17400;52.392;9.750;2023-03-01T04:38:48;19.23;;;12.03;;
30635;SDS011;17400;52.392;9.750;2023-03-01T04:41:18;18.63;;;10.77;;
30635;SDS011;17400;52.392;9.750;2023-03-01T04:43:47;19.70;;;11.67;;
30635;SDS011;17400;52.392;9.750;2023-03-01T04:46:16;17.27;;;11.03;;
30635;SDS011;17400;52.392;9.750;2023-03-01T04:48:45;18.87;;;10.83;;
30635;SDS011;17400;52.392;9.750;2023-03-01T04:51:14;17.23;;;10.87;;
30635;SDS011;17400;52.392;9.750;2023-03-01T04:53:42;18.30;;;11.23;;
30635;SDS011;17400;52.392;9.750;2023-03-01T04:56:11;16.00;;;10.27;;
30635;SDS011;17400;52.392;9.750;2023-03-01T04:58:41;18.97;;;10.83;;
30635;SDS011;17400;52.392;9.750;2023-03-01T05:01:09;14.47;;;11.03;;
30635;SDS011;17400;52.392;9.750;2023-03-01T05:03:42;17.90;;;11.30;;
30635;SDS011;17400;52.392;9.750;2023-03-01T05:06:10;16.90;;;10.23;;
30635;SDS011;17400;52.392;9.750;2023-03-01T05:08:38;15.37;;;10.37;;
30635;SDS011;17400;52.392;9.750;2023-03-01T05:11:07;19.27;;;11.73;;
30635;SDS011;17400;52.392;9.750;2023-03-01T05:13:35;13.73;;;9.20;;
30635;SDS011;17400;52.392;9.750;2023-03-01T05:16:06;13.73;;;8.67;;
30635;SDS011;17400;52.392;9.750;2023-03-01T05:18:38;16.13;;;9.90;;
30635;SDS011;17400;52.392;9.750;2023-03-01T05:21:07;15.47;;;10.47;;
30635;SDS011;17400;52.392;9.750;2023-03-01T05:23:36;17.20;;;9.67;;
30635;SDS011;17400;52.392;9.750;2023-03-01T05:26:04;17.37;;;10.43;;
30635;SDS011;17400;52.392;9.750;2023-03-01T05:28:47;17.47;;;10.77;;
30635;SDS011;17400;52.392;9.750;2023-03-01T05:31:16;14.37;;;9.77;;
30635;SDS011;17400;52.392;9.750;2023-03-01T05:33:44;17.37;;;10.23;;
30635;SDS011;17400;52.392;9.750;2023-03-01T05:36:12;16.53;;;10.20;;
30635;SDS011;17400;52.392;9.750;2023-03-01T05:38:39;13.80;;;10.50;;
30635;SDS011;17400;52.392;9.750;2023-03-01T05:41:13;16.07;;;9.67;;
30635;SDS011;17400;52.392;9.750;2023-03-01T05:43:41;19.43;;;10.97;;
30635;SDS011;17400;52.392;9.750;2023-03-01T05:46:11;15.77;;;10.07;;
30635;SDS011;17400;52.392;9.750;2023-03-01T05:48:43;17.23;;;9.20;;
30635;SDS011;17400;52.392;9.750;2023-03-01T05:51:10;20.00;;;10.23;;
30635;SDS011;17400;52.392;9.750;2023-03-01T05:53:40;14.77;;;10.13;;
30635;SDS011;17400;52.392;9.750;2023-03-01T05:56:09;17.33;;;10.90;;
30635;SDS011;17400;52.392;9.750;2023-03-01T05:58:37;14.57;;;10.73;;
30635;SDS011;17400;52.392;9.750;2023-03-01T06:01:05;22.27;;;11.93;;
30635;SDS011;17400;52.392;9.750;2023-03-01T06:03:33;20.07;;;11.67;;
30635;SDS011;17400;52.392;9.750;2023-03-01T06:06:02;16.37;;;10.47;;
30635;SDS011;17400;52.392;9.750;2023-03-01T06:08:30;17.67;;;10.80;;
30635;SDS011;17400;52.392;9.750;2023-03-01T06:10:57;19.07;;;10.23;;
30635;SDS011;17400;52.392;9.750;2023-03-01T06:13:25;22.10;;;11.17;;
30635;SDS011;17400;52.392;9.750;2023-03-01T06:15:53;16.80;;;9.07;;
30635;SDS011;17400;52.392;9.750;2023-03-01T06:18:21;19.20;;;10.37;;
30635;SDS011;17400;52.392;9.750;2023-03-01T06:20:52;19.47;;;11.70;;
30635;SDS011;17400;52.392;9.750;2023-03-01T06:23:21;14.40;;;10.40;;
30635;SDS011;17400;52.392;9.750;2023-03-01T06:25:50;18.23;;;11.23;;
30635;SDS011;17400;52.392;9.750;2023-03-01T06:28:17;20.87;;;12.13;;
30635;SDS011;17400;52.392;9.750;2023-03-01T06:30:45;17.97;;;10.97;;
30635;SDS011;17400;52.392;9.750;2023-03-01T06:33:13;23.20;;;12.40;;
30635;SDS011;17400;52.392;9.750;2023-03-01T06:35:41;18.80;;;11.57;;
30635;SDS011;17400;52.392;9.750;2023-03-01T06:38:09;20.13;;;11.20;;
30635;SDS011;17400;52.392;9.750;2023-03-01T06:40:38;19.93;;;12.97;;
30635;SDS011;17400;52.392;9.750;2023-03-01T06:43:06;19.10;;;12.30;;
30635;SDS011;17400;52.392;9.750;2023-03-01T06:45:34;20.43;;;11.90;;
30635;SDS011;17400;52.392;9.750;2023-03-01T06:48:02;18.30;;;11.67;;
30635;SDS011;17400;52.392;9.750;2023-03-01T06:50:33;17.63;;;10.07;;
30635;SDS011;17400;52.392;9.750;2023-03-01T06:53:01;15.10;;;10.20;;
30635;SDS011;17400;52.392;9.750;2023-03-01T06:55:29;18.87;;;10.90;;
30635;SDS011;17400;52.392;9.750;2023-03-01T06:57:59;18.57;;;10.77;;
30635;SDS011;17400;52.392;9.750;2023-03-01T07:00:28;19.93;;;11.50;;
30635;SDS011;17400;52.392;9.750;2023-03-01T07:02:59;20.23;;;11.33;;
30635;SDS011;17400;52.392;9.750;2023-03-01T07:05:28;18.87;;;10.50;;
30635;SDS011;17400;52.392;9.750;2023-03-01T07:07:56;20.00;;;11.67;;
30635;SDS011;17400;52.392;9.750;2023-03-01T07:10:24;16.17;;;10.30;;
30635;SDS011;17400;52.392;9.750;2023-03-01T07:12:55;22.03;;;11.17;;
30635;SDS011;17400;52.392;9.750;2023-03-01T07:15:25;18.17;;;11.37;;
30635;SDS011;17400;52.392;9.750;2023-03-01T07:17:53;17.40;;;11.13;;
30635;SDS011;17400;52.392;9.750;2023-03-01T07:20:21;20.63;;;12.53;;
30635;SDS011;17400;52.392;9.750;2023-03-01T07:22:51;24.33;;;12.23;;
30635;SDS011;17400;52.392;9.750;2023-03-01T07:25:19;20.90;;;11.37;;
30635;SDS011;17400;52.392;9.750;2023-03-01T07:27:48;18.23;;;11.33;;
30635;SDS011;17400;52.392;9.750;2023-03-01T07:30:17;15.70;;;10.20;;
30635;SDS011;17400;52.392;9.750;2023-03-01T07:32:47;18.73;;;12.00;;
30635;SDS011;17400;52.392;9.750;2023-03-01T07:35:15;18.20;;;10.07;;
30635;SDS011;17400;52.392;9.750;2023-03-01T07:37:43;16.23;;;10.43;;
30635;SDS011;17400;52.392;9.750;2023-03-01T07:40:11;19.13;;;11.97;;
30635;SDS011;17400;52.392;9.750;2023-03-01T07:42:40;21.17;;;10.53;;
30635;SDS011;17400;52.392;9.750;2023-03-01T07:45:09;18.90;;;10.30;;
30635;SDS011;17400;52.392;9.750;2023-03-01T07:47:37;21.23;;;10.03;;
30635;SDS011;17400;52.392;9.750;2023-03-01T07:50:07;16.00;;;10.50;;
30635;SDS011;17400;52.392;9.750;2023-03-01T07:52:36;18.10;;;10.33;;
30635;SDS011;17400;52.392;9.750;2023-03-01T07:55:05;17.47;;;9.13;;
30635;SDS011;17400;52.392;9.750;2023-03-01T07:57:34;13.87;;;9.20;;
30635;SDS011;17400;52.392;9.750;2023-03-01T08:00:02;17.83;;;9.43;;
30635;SDS011;17400;52.392;9.750;2023-03-01T08:02:30;16.27;;;9.90;;
30635;SDS011;17400;52.392;9.750;2023-03-01T08:04:58;12.93;;;8.77;;
30635;SDS011;17400;52.392;9.750;2023-03-01T08:07:29;14.80;;;10.23;;
30635;SDS011;17400;52.392;9.750;2023-03-01T08:09:56;19.20;;;10.27;;
30635;SDS011;17400;52.392;9.750;2023-03-01T08:12:24;19.43;;;10.00;;
30635;SDS011;17400;52.392;9.750;2023-03-01T08:14:54;15.97;;;8.73;;
30635;SDS011;17400;52.392;9.750;2023-03-01T08:17:21;14.80;;;9.47;;
30635;SDS011;17400;52.392;9.750;2023-03-01T08:19:49;14.33;;;8.57;;
30635;SDS011;17400;52.392;9.750;2023-03-01T08:22:17;16.13;;;10.00;;
30635;SDS011;17400;52.392;9.750;2023-03-01T08:24:46;15.90;;;9.77;;
30635;SDS011;17400;52.392;9.750;2023-03-01T08:27:14;18.60;;;10.00;;
30635;SDS011;17400;52.392;9.750;2023-03-01T08:29:42;18.73;;;11.27;;
30635;SDS011;17400;52.392;9.750;2023-03-01T08:32:10;18.23;;;9.40;;
30635;SDS011;17400;52.392;9.750;2023-03-01T08:34:38;14.60;;;9.20;;
30635;SDS011;17400;52.392;9.750;2023-03-01T08:37:08;15.20;;;8.80;;
30635;SDS011;17400;52.392;9.750;2023-03-01T08:39:36;15.50;;;9.17;;
30635;SDS011;17400;52.392;9.750;2023-03-01T08:42:05;14.77;;;9.30;;
30635;SDS011;17400;52.392;9.750;2023-03-01T08:44:32;12.13;;;8.23;;
30635;SDS011;17400;52.392;9.750;2023-03-01T08:47:01;15.63;;;7.60;;
30635;SDS011;17400;52.392;9.750;2023-03-01T08:49:33;12.87;;;8.03;;
30635;SDS011;17400;52.392;9.750;2023-03-01T08:52:01;15.33;;;8.43;;
30635;SDS011;17400;52.392;9.750;2023-03-01T08:54:29;13.93;;;7.93;;
30635;SDS011;17400;52.392;9.750;2023-03-01T08:56:57;18.47;;;7.60;;
30635;SDS011;17400;52.392;9.750;2023-03-01T08:59:26;21.30;;;8.07;;
30635;SDS011;17400;52.392;9.750;2023-03-01T09:01:55;13.47;;;6.27;;
30635;SDS011;17400;52.392;9.750;2023-03-01T09:04:23;10.67;;;6.03;;
30635;SDS011;17400;52.392;9.750;2023-03-01T09:06:51;13.57;;;7.07;;
30635;SDS011;17400;52.392;9.750;2023-03-01T09:09:18;11.93;;;6.20;;
30635;SDS011;17400;52.392;9.750;2023-03-01T09:11:46;12.20;;;7.27;;
30635;SDS011;17400;52.392;9.750;2023-03-01T09:14:16;8.13;;;5.57;;
30635;SDS011;17400;52.392;9.750;2023-03-01T09:16:45;11.17;;;6.13;;
30635;SDS011;17400;52.392;9.750;2023-03-01T09:19:15;12.97;;;7.20;;
30635;SDS011;17400;52.392;9.750;2023-03-01T09:21:43;9.60;;;5.27;;
30635;SDS011;17400;52.392;9.750;2023-03-01T09:24:19;10.67;;;6.00;;
30635;SDS011;17400;52.392;9.750;2023-03-01T09:26:48;9.93;;;5.50;;
30635;SDS011;17400;52.392;9.750;2023-03-01T09:29:17;9.17;;;5.90;;
30635;SDS011;17400;52.392;9.750;2023-03-01T09:31:46;11.53;;;5.50;;
30635;SDS011;17400;52.392;9.750;2023-03-01T09:34:16;8.83;;;5.37;;
30635;SDS011;17400;52.392;9.750;2023-03-01T09:36:49;11.13;;;5.17;;
30635;SDS011;17400;52.392;9.750;2023-03-01T09:39:18;7.30;;;4.37;;
30635;SDS011;17400;52.392;9.750;2023-03-01T09:41:49;8.50;;;5.40;;
30635;SDS011;17400;52.392;9.750;2023-03-01T09:44:27;12.60;;;5.67;;
30635;SDS011;17400;52.392;9.750;2023-03-01T09:47:00;9.40;;;5.30;;
30635;SDS011;17400;52.392;9.750;2023-03-01T09:49:30;13.80;;;5.33;;
30635;SDS011;17400;52.392;9.750;2023-03-01T09:52:01;9.87;;;5.23;;
30635;SDS011;17400;52.392;9.750;2023-03-01T09:54:35;9.23;;;5.73;;
30635;SDS011;17400;52.392;9.750;2023-03-01T09:57:05;6.60;;;4.23;;
30635;SDS011;17400;52.392;9.750;2023-03-01T09:59:43;9.03;;;4.73;;
30635;SDS011;17400;52.392;9.750;2023-03-01T10:02:28;12.50;;;5.07;;
30635;SDS011;17400;52.392;9.750;2023-03-01T10:05:10;7.67;;;4.43;;
30635;SDS011;17400;52.392;9.750;2023-03-01T10:07:48;10.93;;;5.90;;
30635;SDS011;17400;52.392;9.750;2023-03-01T10:10:29;14.77;;;4.77;;
30635;SDS011;17400;52.392;9.750;2023-03-01T10:13:04;10.70;;;5.30;;
30635;SDS011;17400;52.392;9.750;2023-03-01T10:15:38;8.50;;;4.60;;
30635;SDS011;17400;52.392;9.750;2023-03-01T10:18:12;11.70;;;4.77;;
30635;SDS011;17400;52.392;9.750;2023-03-01T10:20:46;10.57;;;5.00;;
30635;SDS011;17400;52.392;9.750;2023-03-01T10:23:19;6.97;;;4.40;;
30635;SDS011;17400;52.392;9.750;2023-03-01T10:25:50;10.17;;;5.53;;
30635;SDS011;17400;52.392;9.750;2023-03-01T10:28:25;11.27;;;5.53;;
30635;SDS011;17400;52.392;9.750;2023-03-01T10:30:57;7.73;;;4.63;;
30635;SDS011;17400;52.392;9.750;2023-03-01T10:33:28;14.67;;;5.80;;
30635;SDS011;17400;52.392;9.750;2023-03-01T10:35:58;9.03;;;4.40;;
30635;SDS011;17400;52.392;9.750;2023-03-01T10:38:26;8.30;;;5.40;;
30635;SDS011;17400;52.392;9.750;2023-03-01T10:40:59;8.60;;;4.13;;
30635;SDS011;17400;52.392;9.750;2023-03-01T10:43:32;11.30;;;5.13;;
30635;SDS011;17400;52.392;9.750;2023-03-01T10:46:21;8.57;;;4.83;;
30635;SDS011;17400;52.392;9.750;2023-03-01T10:49:10;10.53;;;4.47;;
30635;SDS011;17400;52.392;9.750;2023-03-01T10:51:43;7.70;;;4.53;;
30635;SDS011;17400;52.392;9.750;2023-03-01T10:54:16;11.43;;;4.23;;
30635;SDS011;17400;52.392;9.750;2023-03-01T10:56:45;7.50;;;3.77;;
30635;SDS011;17400;52.392;9.750;2023-03-01T10:59:21;8.57;;;4.20;;
30635;SDS011;17400;52.392;9.750;2023-03-01T11:02:01;8.43;;;4.07;;
30635;SDS011;17400;52.392;9.750;2023-03-01T11:04:59;6.43;;;3.57;;
30635;SDS011;17400;52.392;9.750;2023-03-01T11:07:28;11.33;;;4.23;;
30635;SDS011;17400;52.392;9.750;2023-03-01T11:09:56;7.13;;;3.63;;
30635;SDS011;17400;52.392;9.750;2023-03-01T11:12:24;8.70;;;4.40;;
30635;SDS011;17400;52.392;9.750;2023-03-01T11:14:57;10.67;;;4.57;;
30635;SDS011;17400;52.392;9.750;2023-03-01T11:17:26;7.87;;;4.37;;
30635;SDS011;17400;52.392;9.750;2023-03-01T11:20:05;8.23;;;3.93;;
30635;SDS011;17400;52.392;9.750;2023-03-01T11:22:44;8.80;;;4.87;;
30635;SDS011;17400;52.392;9.750;2023-03-01T11:25:14;6.67;;;3.80;;
30635;SDS011;17400;52.392;9.750;2023-03-01T11:27:44;6.50;;;3.50;;
30635;SDS011;17400;52.392;9.750;2023-03-01T11:30:15;6.07;;;3.20;;
30635;SDS011;17400;52.392;9.750;2023-03-01T11:32:50;11.50;;;3.80;;
30635;SDS011;17400;52.392;9.750;2023-03-01T11:35:30;6.87;;;2.97;;
30635;SDS011;17400;52.392;9.750;2023-03-01T11:38:02;5.27;;;3.33;;
30635;SDS011;17400;52.392;9.750;2023-03-01T11:40:44;11.10;;;4.13;;
30635;SDS011;17400;52.392;9.750;2023-03-01T11:43:23;7.87;;;3.27;;
30635;SDS011;17400;52.392;9.750;2023-03-01T11:45:58;8.20;;;3.30;;
30635;SDS011;17400;52.392;9.750;2023-03-01T11:48:44;6.93;;;3.33;;
30635;SDS011;17400;52.392;9.750;2023-03-01T11:51:24;6.20;;;3.50;;
30635;SDS011;17400;52.392;9.750;2023-03-01T11:54:06;14.27;;;4.07;;
30635;SDS011;17400;52.392;9.750;2023-03-01T11:56:43;5.70;;;3.03;;
30635;SDS011;17400;52.392;9.750;2023-03-01T12:02:20;3.80;;;2.20;;
30635;SDS011;17400;52.392;9.750;2023-03-01T12:08:12;6.27;;;3.30;;
30635;SDS011;17400;52.392;9.750;2023-03-01T12:10:48;5.93;;;3.03;;
30635;SDS011;17400;52.392;9.750;2023-03-01T12:13:40;5.87;;;2.43;;
30635;SDS011;17400;52.392;9.750;2023-03-01T12:16:25;8.60;;;3.23;;
30635;SDS011;17400;52.392;9.750;2023-03-01T12:19:08;6.40;;;3.10;;
30635;SDS011;17400;52.392;9.750;2023-03-01T12:21:50;7.07;;;3.00;;
30635;SDS011;17400;52.392;9.750;2023-03-01T12:24:45;4.67;;;2.80;;
30635;SDS011;17400;52.392;9.750;2023-03-01T12:27:42;7.87;;;3.73;;
30635;SDS011;17400;52.392;9.750;2023-03-01T12:30:32;6.00;;;3.17;;
30635;SDS011;17400;52.392;9.750;2023-03-01T12:33:14;6.67;;;3.00;;
30635;SDS011;17400;52.392;9.750;2023-03-01T12:35:54;5.67;;;3.80;;
30635;SDS011;17400;52.392;9.750;2023-03-01T12:38:37;5.83;;;3.83;;
30635;SDS011;17400;52.392;9.750;2023-03-01T12:44:15;6.27;;;3.10;;
30635;SDS011;17400;52.392;9.750;2023-03-01T12:47:00;6.17;;;3.13;;
30635;SDS011;17400;52.392;9.750;2023-03-01T12:49:37;5.87;;;3.23;;
30635;SDS011;17400;52.392;9.750;2023-03-01T12:52:10;6.17;;;3.40;;
30635;SDS011;17400;52.392;9.750;2023-03-01T12:54:43;7.73;;;3.83;;
30635;SDS011;17400;52.392;9.750;2023-03-01T12:57:15;7.95;;;4.15;;
30635;SDS011;17400;52.392;9.750;2023-03-01T12:59:51;11.27;;;4.87;;
30635;SDS011;17400;52.392;9.750;2023-03-01T13:02:31;5.22;;;3.40;;
30635;SDS011;17400;52.392;9.750;2023-03-01T13:05:16;6.85;;;3.05;;
30635;SDS011;17400;52.392;9.750;2023-03-01T13:07:53;7.83;;;3.73;;
30635;SDS011;17400;52.392;9.750;2023-03-01T13:10:30;7.07;;;3.35;;
30635;SDS011;17400;52.392;9.750;2023-03-01T13:13:09;9.80;;;3.28;;
30635;SDS011;17400;52.392;9.750;2023-03-01T13:15:40;6.33;;;3.73;;
30635;SDS011;17400;52.392;9.750;2023-03-01T13:18:31;5.53;;;3.38;;
30635;SDS011;17400;52.392;9.750;2023-03-01T13:21:01;6.30;;;3.58;;
30635;SDS011;17400;52.392;9.750;2023-03-01T13:23:34;7.55;;;3.80;;
30635;SDS011;17400;52.392;9.750;2023-03-01T13:26:06;8.45;;;4.18;;
30635;SDS011;17400;52.392;9.750;2023-03-01T13:37:33;9.00;;;5.38;;
30635;SDS011;17400;52.392;9.750;2023-03-01T13:40:05;8.30;;;4.40;;
30635;SDS011;17400;52.392;9.750;2023-03-01T13:43:27;8.48;;;4.07;;
30635;SDS011;17400;52.392;9.750;2023-03-01T13:45:58;6.78;;;3.65;;
30635;SDS011;17400;52.392;9.750;2023-03-01T13:48:28;6.55;;;3.72;;
30635;SDS011;17400;52.392;9.750;2023-03-01T13:50:58;5.13;;;3.63;;
30635;SDS011;17400;52.392;9.750;2023-03-01T13:53:29;10.40;;;5.05;;
30635;SDS011;17400;52.392;9.750;2023-03-01T13:56:02;7.55;;;3.42;;
30635;SDS011;17400;52.392;9.750;2023-03-01T13:58:43;6.38;;;4.20;;
30635;SDS011;17400;52.392;9.750;2023-03-01T14:01:21;7.03;;;3.58;;
30635;SDS011;17400;52.392;9.750;2023-03-01T14:03:51;7.70;;;4.00;;
30635;SDS011;17400;52.392;9.750;2023-03-01T14:06:20;5.63;;;2.88;;
30635;SDS011;17400;52.392;9.750;2023-03-01T14:09:00;6.28;;;3.70;;
30635;SDS011;17400;52.392;9.750;2023-03-01T14:14:26;5.57;;;2.88;;
30635;SDS011;17400;52.392;9.750;2023-03-01T14:17:07;3.97;;;2.37;;
30635;SDS011;17400;52.392;9.750;2023-03-01T14:19:45;6.32;;;2.95;;
30635;SDS011;17400;52.392;9.750;2023-03-01T14:22:16;7.63;;;3.78;;
30635;SDS011;17400;52.392;9.750;2023-03-01T14:24:48;4.90;;;2.87;;
30635;SDS011;17400;52.392;9.750;2023-03-01T14:27:19;6.33;;;3.37;;
30635;SDS011;17400;52.392;9.750;2023-03-01T14:29:53;6.17;;;3.37;;
30635;SDS011;17400;52.392;9.750;2023-03-01T14:32:25;6.70;;;2.83;;
30635;SDS011;17400;52.392;9.750;2023-03-01T14:34:55;5.93;;;3.20;;
30635;SDS011;17400;52.392;9.750;2023-03-01T14:37:24;4.67;;;2.60;;
30635;SDS011;17400;52.392;9.750;2023-03-01T14:39:54;5.80;;;2.47;;
30635;SDS011;17400;52.392;9.750;2023-03-01T14:42:23;6.40;;;3.03;;
30635;SDS011;17400;52.392;9.750;2023-03-01T14:44:55;5.73;;;2.37;;
30635;SDS011;17400;52.392;9.750;2023-03-01T14:47:27;3.67;;;2.23;;
30635;SDS011;17400;52.392;9.750;2023-03-01T14:49:58;6.23;;;2.60;;
30635;SDS011;17400;52.392;9.750;2023-03-01T14:52:31;15.37;;;7.03;;
30635;SDS011;17400;52.392;9.750;2023-03-01T14:55:03;9.43;;;4.33;;
30635;SDS011;17400;52.392;9.750;2023-03-01T14:57:33;3.80;;;2.17;;
30635;SDS011;17400;52.392;9.750;2023-03-01T15:00:01;5.90;;;2.53;;
30635;SDS011;17400;52.392;9.750;2023-03-01T15:02:32;8.50;;;2.17;;
30635;SDS011;17400;52.392;9.750;2023-03-01T15:05:02;7.90;;;2.70;;
30635;SDS011;17400;52.392;9.750;2023-03-01T15:07:35;3.53;;;2.90;;
30635;SDS011;17400;52.392;9.750;2023-03-01T15:10:06;5.53;;;2.70;;
30635;SDS011;17400;52.392;9.750;2023-03-01T15:12:43;11.73;;;8.93;;
30635;SDS011;17400;52.392;9.750;2023-03-01T15:15:30;6.10;;;3.13;;
30635;SDS011;17400;52.392;9.750;2023-03-01T15:18:02;3.97;;;2.57;;